sensor_id;sensor_type;location;lat;lon;timestamp;P1;durP1;ratioP1;P2;durP2;ratioP2
5758;SDS011;2904;48.788;9.196;2022-09-12T00:02:21;12.15;;;8.85;;
5758;SDS011;2904;48.788;9.196;2022-09-12T00:04:47;12.20;;;8.50;;
5758;SDS011;2904;48.788;9.196;2022-09-12T00:07:13;13.50;;;8.90;;
5758;SDS011;2904;48.788;9.196;2022-09-12T00:09:39;22.00;;;12.85;;
5758;SDS011;2904;48.788;9.196;2022-09-12T00:12:05;24.85;;;14.65;;
5758;SDS011;2904;48.788;9.196;2022-09-12T00:14:34;14.87;;;9.55;;
5758;SDS011;2904;48.788;9.196;2022-09-12T00:17:00;11.18;;;8.50;;
5758;SDS011;2904;48.788;9.196;2022-09-12T00:19:26;10.10;;;7.90;;
5758;SDS011;2904;48.788;9.196;2022-09-12T00:21:53;11.93;;;8.75;;
5758;SDS011;2904;48.788;9.196;2022-09-12T00:24:19;11.10;;;8.03;;
5758;SDS011;2904;48.788;9.196;2022-09-12T00:26:45;13.45;;;8.35;;
5758;SDS011;2904;48.788;9.196;2022-09-12T00:29:15;11.17;;;8.60;;
5758;SDS011;2904;48.788;9.196;2022-09-12T00:31:42;11.38;;;7.93;;
5758;SDS011;2904;48.788;9.196;2022-09-12T00:34:08;11.75;;;8.23;;
5758;SDS011;2904;48.788;9.196;2022-09-12T00:36:34;13.40;;;7.80;;
5758;SDS011;2904;48.788;9.196;2022-09-12T00:39:00;11.23;;;8.20;;
5758;SDS011;2904;48.788;9.196;2022-09-12T00:41:30;11.90;;;8.45;;
5758;SDS011;2904;48.788;9.196;2022-09-12T00:43:58;12.45;;;8.23;;
5758;SDS011;2904;48.788;9.196;2022-09-12T00:47:09;9.50;;;8.10;;
5758;SDS011;2904;48.788;9.196;2022-09-12T00:50:03;9.95;;;7.93;;
5758;SDS011;2904;48.788;9.196;2022-09-12T00:52:40;11.35;;;8.82;;
5758;SDS011;2904;48.788;9.196;2022-09-12T00:55:12;10.23;;;8.55;;
5758;SDS011;2904;48.788;9.196;2022-09-12T00:57:50;13.25;;;8.40;;
5758;SDS011;2904;48.788;9.196;2022-09-12T01:00:22;11.80;;;8.60;;
5758;SDS011;2904;48.788;9.196;2022-09-12T01:02:50;10.70;;;9.05;;
5758;SDS011;2904;48.788;9.196;2022-09-12T01:05:20;12.73;;;9.10;;
5758;SDS011;2904;48.788;9.196;2022-09-12T01:07:47;12.00;;;8.17;;
5758;SDS011;2904;48.788;9.196;2022-09-12T01:10:14;11.23;;;8.37;;
5758;SDS011;2904;48.788;9.196;2022-09-12T01:12:41;12.60;;;8.70;;
5758;SDS011;2904;48.788;9.196;2022-09-12T01:15:07;11.50;;;8.83;;
5758;SDS011;2904;48.788;9.196;2022-09-12T01:17:40;10.95;;;8.88;;
5758;SDS011;2904;48.788;9.196;2022-09-12T01:26:04;15.30;;;9.63;;
5758;SDS011;2904;48.788;9.196;2022-09-12T01:29:56;12.77;;;8.95;;
5758;SDS011;2904;48.788;9.196;2022-09-12T01:32:51;13.07;;;9.33;;
5758;SDS011;2904;48.788;9.196;2022-09-12T01:35:24;11.00;;;8.57;;
5758;SDS011;2904;48.788;9.196;2022-09-12T01:38:07;10.82;;;8.73;;
5758;SDS011;2904;48.788;9.196;2022-09-12T01:43:40;13.15;;;8.73;;
5758;SDS011;2904;48.788;9.196;2022-09-12T01:50:32;12.27;;;9.00;;
5758;SDS011;2904;48.788;9.196;2022-09-12T01:53:02;16.52;;;9.73;;
5758;SDS011;2904;48.788;9.196;2022-09-12T01:55:40;11.27;;;7.65;;
5758;SDS011;2904;48.788;9.196;2022-09-12T01:58:08;15.25;;;9.13;;
5758;SDS011;2904;48.788;9.196;2022-09-12T02:00:45;14.00;;;8.25;;
5758;SDS011;2904;48.788;9.196;2022-09-12T02:03:19;11.65;;;9.15;;
5758;SDS011;2904;48.788;9.196;2022-09-12T02:08:32;12.13;;;8.73;;
5758;SDS011;2904;48.788;9.196;2022-09-12T02:11:01;12.17;;;9.33;;
5758;SDS011;2904;48.788;9.196;2022-09-12T02:13:33;12.87;;;8.67;;
5758;SDS011;2904;48.788;9.196;2022-09-12T02:16:03;14.57;;;8.87;;
5758;SDS011;2904;48.788;9.196;2022-09-12T02:18:30;12.25;;;8.18;;
5758;SDS011;2904;48.788;9.196;2022-09-12T02:20:57;12.13;;;9.30;;
5758;SDS011;2904;48.788;9.196;2022-09-12T02:23:26;17.00;;;10.17;;
5758;SDS011;2904;48.788;9.196;2022-09-12T02:25:55;14.10;;;10.20;;
5758;SDS011;2904;48.788;9.196;2022-09-12T02:28:30;12.57;;;9.17;;
5758;SDS011;2904;48.788;9.196;2022-09-12T02:31:09;11.93;;;8.97;;
5758;SDS011;2904;48.788;9.196;2022-09-12T02:36:37;12.77;;;9.10;;
5758;SDS011;2904;48.788;9.196;2022-09-12T02:39:23;12.23;;;9.43;;
5758;SDS011;2904;48.788;9.196;2022-09-12T02:41:49;23.83;;;15.67;;
5758;SDS011;2904;48.788;9.196;2022-09-12T02:44:16;16.90;;;12.10;;
5758;SDS011;2904;48.788;9.196;2022-09-12T02:46:43;15.98;;;11.23;;
5758;SDS011;2904;48.788;9.196;2022-09-12T02:49:11;14.33;;;10.40;;
5758;SDS011;2904;48.788;9.196;2022-09-12T02:51:37;17.17;;;10.47;;
5758;SDS011;2904;48.788;9.196;2022-09-12T02:54:03;12.13;;;9.50;;
5758;SDS011;2904;48.788;9.196;2022-09-12T02:56:31;15.60;;;10.23;;
5758;SDS011;2904;48.788;9.196;2022-09-12T02:58:59;19.37;;;11.17;;
5758;SDS011;2904;48.788;9.196;2022-09-12T03:01:39;18.30;;;11.13;;
5758;SDS011;2904;48.788;9.196;2022-09-12T03:04:15;15.67;;;11.23;;
5758;SDS011;2904;48.788;9.196;2022-09-12T03:10:02;16.03;;;10.97;;
5758;SDS011;2904;48.788;9.196;2022-09-12T03:12:59;14.37;;;10.80;;
5758;SDS011;2904;48.788;9.196;2022-09-12T03:16:03;16.10;;;10.27;;
5758;SDS011;2904;48.788;9.196;2022-09-12T03:18:45;14.07;;;10.10;;
5758;SDS011;2904;48.788;9.196;2022-09-12T03:24:16;17.33;;;10.17;;
5758;SDS011;2904;48.788;9.196;2022-09-12T03:28:16;14.47;;;9.70;;
5758;SDS011;2904;48.788;9.196;2022-09-12T03:30:45;19.27;;;10.03;;
5758;SDS011;2904;48.788;9.196;2022-09-12T03:33:13;13.67;;;10.10;;
5758;SDS011;2904;48.788;9.196;2022-09-12T03:35:41;13.77;;;9.73;;
5758;SDS011;2904;48.788;9.196;2022-09-12T03:38:07;13.63;;;10.27;;
5758;SDS011;2904;48.788;9.196;2022-09-12T03:40:34;16.20;;;10.83;;
5758;SDS011;2904;48.788;9.196;2022-09-12T03:43:03;17.40;;;11.33;;
5758;SDS011;2904;48.788;9.196;2022-09-12T03:45:30;14.87;;;10.40;;
5758;SDS011;2904;48.788;9.196;2022-09-12T03:47:56;15.00;;;10.40;;
5758;SDS011;2904;48.788;9.196;2022-09-12T03:50:22;16.63;;;10.93;;
5758;SDS011;2904;48.788;9.196;2022-09-12T03:52:48;16.03;;;10.93;;
5758;SDS011;2904;48.788;9.196;2022-09-12T03:55:14;16.40;;;10.43;;
5758;SDS011;2904;48.788;9.196;2022-09-12T03:57:40;14.07;;;10.10;;
5758;SDS011;2904;48.788;9.196;2022-09-12T04:00:06;18.27;;;10.40;;
5758;SDS011;2904;48.788;9.196;2022-09-12T04:02:33;16.30;;;10.57;;
5758;SDS011;2904;48.788;9.196;2022-09-12T04:04:59;17.23;;;10.73;;
5758;SDS011;2904;48.788;9.196;2022-09-12T04:07:25;12.43;;;9.80;;
5758;SDS011;2904;48.788;9.196;2022-09-12T04:09:51;15.53;;;10.30;;
5758;SDS011;2904;48.788;9.196;2022-09-12T04:12:18;14.33;;;10.27;;
5758;SDS011;2904;48.788;9.196;2022-09-12T04:14:44;16.13;;;10.47;;
5758;SDS011;2904;48.788;9.196;2022-09-12T04:17:09;17.47;;;10.73;;
5758;SDS011;2904;48.788;9.196;2022-09-12T04:19:35;15.27;;;10.97;;
5758;SDS011;2904;48.788;9.196;2022-09-12T04:22:01;16.33;;;10.30;;
5758;SDS011;2904;48.788;9.196;2022-09-12T04:24:27;14.23;;;10.53;;
5758;SDS011;2904;48.788;9.196;2022-09-12T04:26:53;14.33;;;10.53;;
5758;SDS011;2904;48.788;9.196;2022-09-12T04:29:19;13.20;;;9.90;;
5758;SDS011;2904;48.788;9.196;2022-09-12T04:31:45;15.60;;;10.27;;
5758;SDS011;2904;48.788;9.196;2022-09-12T04:34:11;14.27;;;9.70;;
5758;SDS011;2904;48.788;9.196;2022-09-12T04:36:37;15.60;;;11.10;;
5758;SDS011;2904;48.788;9.196;2022-09-12T04:39:03;19.47;;;11.37;;
5758;SDS011;2904;48.788;9.196;2022-09-12T04:41:30;14.67;;;10.43;;
5758;SDS011;2904;48.788;9.196;2022-09-12T04:43:57;13.70;;;10.43;;
5758;SDS011;2904;48.788;9.196;2022-09-12T04:46:26;15.53;;;10.23;;
5758;SDS011;2904;48.788;9.196;2022-09-12T04:48:52;15.93;;;11.13;;
5758;SDS011;2904;48.788;9.196;2022-09-12T04:51:20;13.77;;;9.90;;
5758;SDS011;2904;48.788;9.196;2022-09-12T04:53:48;15.10;;;10.60;;
5758;SDS011;2904;48.788;9.196;2022-09-12T04:56:14;16.77;;;10.73;;
5758;SDS011;2904;48.788;9.196;2022-09-12T04:58:40;16.83;;;11.27;;
5758;SDS011;2904;48.788;9.196;2022-09-12T05:01:07;20.63;;;10.93;;
5758;SDS011;2904;48.788;9.196;2022-09-12T05:03:38;17.30;;;10.90;;
5758;SDS011;2904;48.788;9.196;2022-09-12T05:06:05;18.33;;;11.70;;
5758;SDS011;2904;48.788;9.196;2022-09-12T05:08:32;18.10;;;11.40;;
5758;SDS011;2904;48.788;9.196;2022-09-12T05:11:18;14.83;;;11.33;;
5758;SDS011;2904;48.788;9.196;2022-09-12T05:13:46;17.67;;;11.50;;
5758;SDS011;2904;48.788;9.196;2022-09-12T05:16:12;19.13;;;12.60;;
5758;SDS011;2904;48.788;9.196;2022-09-12T05:18:39;15.63;;;10.77;;
5758;SDS011;2904;48.788;9.196;2022-09-12T05:21:06;16.90;;;10.57;;
5758;SDS011;2904;48.788;9.196;2022-09-12T05:23:35;18.97;;;11.20;;
5758;SDS011;2904;48.788;9.196;2022-09-12T05:26:01;19.97;;;11.70;;
5758;SDS011;2904;48.788;9.196;2022-09-12T05:28:29;17.63;;;11.47;;
5758;SDS011;2904;48.788;9.196;2022-09-12T05:31:00;17.87;;;11.70;;
5758;SDS011;2904;48.788;9.196;2022-09-12T05:33:27;16.80;;;11.27;;
5758;SDS011;2904;48.788;9.196;2022-09-12T05:35:53;15.57;;;11.10;;
5758;SDS011;2904;48.788;9.196;2022-09-12T05:38:19;15.67;;;11.20;;
5758;SDS011;2904;48.788;9.196;2022-09-12T05:40:45;17.70;;;11.50;;
5758;SDS011;2904;48.788;9.196;2022-09-12T05:43:10;17.57;;;12.27;;
5758;SDS011;2904;48.788;9.196;2022-09-12T05:45:36;19.03;;;12.37;;
5758;SDS011;2904;48.788;9.196;2022-09-12T05:48:02;17.50;;;12.47;;
5758;SDS011;2904;48.788;9.196;2022-09-12T05:50:28;16.97;;;12.47;;
5758;SDS011;2904;48.788;9.196;2022-09-12T05:52:55;18.27;;;12.87;;
5758;SDS011;2904;48.788;9.196;2022-09-12T05:55:21;18.10;;;12.20;;
5758;SDS011;2904;48.788;9.196;2022-09-12T05:57:48;16.97;;;11.57;;
5758;SDS011;2904;48.788;9.196;2022-09-12T06:00:14;17.60;;;12.83;;
5758;SDS011;2904;48.788;9.196;2022-09-12T06:02:40;18.20;;;11.97;;
5758;SDS011;2904;48.788;9.196;2022-09-12T06:05:06;15.57;;;11.40;;
5758;SDS011;2904;48.788;9.196;2022-09-12T06:07:33;20.37;;;12.70;;
5758;SDS011;2904;48.788;9.196;2022-09-12T06:10:00;18.50;;;12.07;;
5758;SDS011;2904;48.788;9.196;2022-09-12T06:12:28;15.37;;;11.93;;
5758;SDS011;2904;48.788;9.196;2022-09-12T06:14:55;18.20;;;12.77;;
5758;SDS011;2904;48.788;9.196;2022-09-12T06:17:21;20.37;;;13.23;;
5758;SDS011;2904;48.788;9.196;2022-09-12T06:19:47;18.87;;;12.50;;
5758;SDS011;2904;48.788;9.196;2022-09-12T06:22:16;17.17;;;11.37;;
5758;SDS011;2904;48.788;9.196;2022-09-12T06:24:42;18.60;;;12.03;;
5758;SDS011;2904;48.788;9.196;2022-09-12T06:27:09;21.83;;;12.43;;
5758;SDS011;2904;48.788;9.196;2022-09-12T06:29:34;18.10;;;12.63;;
5758;SDS011;2904;48.788;9.196;2022-09-12T06:32:01;19.97;;;12.83;;
5758;SDS011;2904;48.788;9.196;2022-09-12T06:34:27;18.37;;;11.87;;
5758;SDS011;2904;48.788;9.196;2022-09-12T06:36:52;16.60;;;11.70;;
5758;SDS011;2904;48.788;9.196;2022-09-12T06:39:19;17.40;;;12.27;;
5758;SDS011;2904;48.788;9.196;2022-09-12T06:41:45;18.50;;;12.50;;
5758;SDS011;2904;48.788;9.196;2022-09-12T06:44:16;19.73;;;12.77;;
5758;SDS011;2904;48.788;9.196;2022-09-12T06:46:43;24.57;;;12.93;;
5758;SDS011;2904;48.788;9.196;2022-09-12T06:49:09;18.43;;;13.40;;
5758;SDS011;2904;48.788;9.196;2022-09-12T06:51:35;19.63;;;13.17;;
5758;SDS011;2904;48.788;9.196;2022-09-12T06:54:01;17.03;;;11.53;;
5758;SDS011;2904;48.788;9.196;2022-09-12T06:56:27;14.23;;;10.87;;
5758;SDS011;2904;48.788;9.196;2022-09-12T06:58:56;16.87;;;11.27;;
5758;SDS011;2904;48.788;9.196;2022-09-12T07:01:26;18.70;;;11.98;;
5758;SDS011;2904;48.788;9.196;2022-09-12T07:04:00;15.50;;;11.37;;
5758;SDS011;2904;48.788;9.196;2022-09-12T07:06:28;17.05;;;10.65;;
5758;SDS011;2904;48.788;9.196;2022-09-12T07:08:58;15.32;;;11.32;;
5758;SDS011;2904;48.788;9.196;2022-09-12T07:11:25;18.13;;;10.57;;
5758;SDS011;2904;48.788;9.196;2022-09-12T07:13:53;15.38;;;10.27;;
5758;SDS011;2904;48.788;9.196;2022-09-12T07:16:20;19.35;;;10.13;;
5758;SDS011;2904;48.788;9.196;2022-09-12T07:18:50;13.32;;;9.50;;
5758;SDS011;2904;48.788;9.196;2022-09-12T07:21:16;14.98;;;10.60;;
5758;SDS011;2904;48.788;9.196;2022-09-12T07:23:43;18.02;;;10.93;;
5758;SDS011;2904;48.788;9.196;2022-09-12T07:26:10;14.07;;;9.63;;
5758;SDS011;2904;48.788;9.196;2022-09-12T07:28:36;16.10;;;10.18;;
5758;SDS011;2904;48.788;9.196;2022-09-12T07:31:12;16.37;;;10.68;;
5758;SDS011;2904;48.788;9.196;2022-09-12T07:33:39;15.60;;;9.70;;
5758;SDS011;2904;48.788;9.196;2022-09-12T07:36:07;19.17;;;11.30;;
5758;SDS011;2904;48.788;9.196;2022-09-12T07:38:35;28.48;;;17.65;;
5758;SDS011;2904;48.788;9.196;2022-09-12T07:41:08;14.43;;;9.68;;
5758;SDS011;2904;48.788;9.196;2022-09-12T07:43:34;18.83;;;10.63;;
5758;SDS011;2904;48.788;9.196;2022-09-12T07:46:00;21.02;;;12.55;;
5758;SDS011;2904;48.788;9.196;2022-09-12T07:48:26;18.08;;;11.68;;
5758;SDS011;2904;48.788;9.196;2022-09-12T07:50:58;24.90;;;14.57;;
5758;SDS011;2904;48.788;9.196;2022-09-12T07:53:29;16.87;;;9.65;;
5758;SDS011;2904;48.788;9.196;2022-09-12T07:55:56;13.55;;;9.50;;
5758;SDS011;2904;48.788;9.196;2022-09-12T07:58:22;14.73;;;9.07;;
5758;SDS011;2904;48.788;9.196;2022-09-12T08:00:48;17.52;;;9.60;;
5758;SDS011;2904;48.788;9.196;2022-09-12T08:03:14;13.27;;;9.32;;
5758;SDS011;2904;48.788;9.196;2022-09-12T08:05:40;13.32;;;8.80;;
5758;SDS011;2904;48.788;9.196;2022-09-12T08:08:06;14.15;;;8.63;;
5758;SDS011;2904;48.788;9.196;2022-09-12T08:10:32;12.35;;;8.43;;
5758;SDS011;2904;48.788;9.196;2022-09-12T08:12:59;14.68;;;8.65;;
5758;SDS011;2904;48.788;9.196;2022-09-12T08:15:25;12.98;;;8.80;;
5758;SDS011;2904;48.788;9.196;2022-09-12T08:17:51;15.48;;;7.30;;
5758;SDS011;2904;48.788;9.196;2022-09-12T08:20:17;13.07;;;8.30;;
5758;SDS011;2904;48.788;9.196;2022-09-12T08:22:42;9.90;;;7.43;;
5758;SDS011;2904;48.788;9.196;2022-09-12T08:25:08;11.40;;;7.68;;
5758;SDS011;2904;48.788;9.196;2022-09-12T08:27:34;13.05;;;8.43;;
5758;SDS011;2904;48.788;9.196;2022-09-12T08:30:01;11.88;;;7.60;;
5758;SDS011;2904;48.788;9.196;2022-09-12T08:32:26;12.02;;;7.37;;
5758;SDS011;2904;48.788;9.196;2022-09-12T08:34:52;14.23;;;6.65;;
5758;SDS011;2904;48.788;9.196;2022-09-12T08:37:18;14.95;;;7.35;;
5758;SDS011;2904;48.788;9.196;2022-09-12T08:39:44;14.60;;;7.78;;
5758;SDS011;2904;48.788;9.196;2022-09-12T08:42:15;11.50;;;7.40;;
5758;SDS011;2904;48.788;9.196;2022-09-12T08:48:06;8.88;;;6.50;;
5758;SDS011;2904;48.788;9.196;2022-09-12T08:50:34;13.35;;;6.75;;
5758;SDS011;2904;48.788;9.196;2022-09-12T08:53:02;9.25;;;6.78;;
5758;SDS011;2904;48.788;9.196;2022-09-12T08:55:33;7.62;;;6.40;;
5758;SDS011;2904;48.788;9.196;2022-09-12T08:58:00;13.55;;;6.50;;
5758;SDS011;2904;48.788;9.196;2022-09-12T09:03:42;10.82;;;6.03;;
5758;SDS011;2904;48.788;9.196;2022-09-12T09:06:15;8.70;;;5.50;;
5758;SDS011;2904;48.788;9.196;2022-09-12T09:16:42;7.32;;;4.50;;
5758;SDS011;2904;48.788;9.196;2022-09-12T09:19:14;7.28;;;4.70;;
5758;SDS011;2904;48.788;9.196;2022-09-12T09:21:42;5.87;;;4.40;;
5758;SDS011;2904;48.788;9.196;2022-09-12T09:24:13;6.43;;;4.18;;
5758;SDS011;2904;48.788;9.196;2022-09-12T09:26:48;8.90;;;4.60;;
5758;SDS011;2904;48.788;9.196;2022-09-12T09:29:16;7.07;;;4.00;;
5758;SDS011;2904;48.788;9.196;2022-09-12T09:31:43;5.22;;;3.65;;
5758;SDS011;2904;48.788;9.196;2022-09-12T09:34:14;5.32;;;3.70;;
5758;SDS011;2904;48.788;9.196;2022-09-12T09:36:51;4.30;;;3.87;;
5758;SDS011;2904;48.788;9.196;2022-09-12T09:46:21;3.55;;;3.22;;
5758;SDS011;2904;48.788;9.196;2022-09-12T09:48:48;5.82;;;3.00;;
5758;SDS011;2904;48.788;9.196;2022-09-12T09:51:16;3.62;;;2.60;;
5758;SDS011;2904;48.788;9.196;2022-09-12T09:53:47;2.92;;;2.62;;
5758;SDS011;2904;48.788;9.196;2022-09-12T09:56:25;3.28;;;2.40;;
5758;SDS011;2904;48.788;9.196;2022-09-12T09:58:54;3.05;;;2.50;;
5758;SDS011;2904;48.788;9.196;2022-09-12T10:01:20;2.90;;;2.60;;
5758;SDS011;2904;48.788;9.196;2022-09-12T10:03:47;3.28;;;2.80;;
5758;SDS011;2904;48.788;9.196;2022-09-12T10:06:22;2.60;;;2.40;;
5758;SDS011;2904;48.788;9.196;2022-09-12T10:09:03;3.72;;;2.50;;
5758;SDS011;2904;48.788;9.196;2022-09-12T10:11:50;2.65;;;2.45;;
5758;SDS011;2904;48.788;9.196;2022-09-12T10:14:26;4.68;;;2.47;;
5758;SDS011;2904;48.788;9.196;2022-09-12T10:16:53;3.05;;;2.75;;
5758;SDS011;2904;48.788;9.196;2022-09-12T10:19:23;3.28;;;2.40;;
5758;SDS011;2904;48.788;9.196;2022-09-12T10:21:49;4.40;;;2.42;;
5758;SDS011;2904;48.788;9.196;2022-09-12T10:24:27;3.05;;;2.40;;
5758;SDS011;2904;48.788;9.196;2022-09-12T10:26:56;2.70;;;2.50;;
5758;SDS011;2904;48.788;9.196;2022-09-12T10:29:26;2.47;;;2.12;;
5758;SDS011;2904;48.788;9.196;2022-09-12T10:31:56;2.17;;;2.08;;
5758;SDS011;2904;48.788;9.196;2022-09-12T10:34:30;3.50;;;2.17;;
5758;SDS011;2904;48.788;9.196;2022-09-12T10:37:03;2.47;;;2.10;;
5758;SDS011;2904;48.788;9.196;2022-09-12T10:39:30;2.70;;;2.30;;
5758;SDS011;2904;48.788;9.196;2022-09-12T10:41:58;2.17;;;2.08;;
5758;SDS011;2904;48.788;9.196;2022-09-12T10:44:27;2.65;;;2.25;;
5758;SDS011;2904;48.788;9.196;2022-09-12T10:46:54;3.62;;;2.30;;
5758;SDS011;2904;48.788;9.196;2022-09-12T10:49:22;3.15;;;2.50;;
5758;SDS011;2904;48.788;9.196;2022-09-12T10:51:49;2.40;;;2.20;;
5758;SDS011;2904;48.788;9.196;2022-09-12T10:54:16;3.75;;;2.20;;
5758;SDS011;2904;48.788;9.196;2022-09-12T11:03:04;4.60;;;2.40;;
5758;SDS011;2904;48.788;9.196;2022-09-12T11:05:53;3.10;;;2.12;;
5758;SDS011;2904;48.788;9.196;2022-09-12T11:08:44;2.55;;;2.17;;
5758;SDS011;2904;48.788;9.196;2022-09-12T11:11:28;2.20;;;2.10;;
5758;SDS011;2904;48.788;9.196;2022-09-12T11:14:28;2.45;;;2.25;;
5758;SDS011;2904;48.788;9.196;2022-09-12T11:17:22;2.33;;;2.15;;
5758;SDS011;2904;48.788;9.196;2022-09-12T11:24:31;2.67;;;2.00;;
5758;SDS011;2904;48.788;9.196;2022-09-12T11:27:06;2.65;;;1.77;;
5758;SDS011;2904;48.788;9.196;2022-09-12T11:30:02;2.05;;;1.80;;
5758;SDS011;2904;48.788;9.196;2022-09-12T11:44:11;1.98;;;1.62;;
5758;SDS011;2904;48.788;9.196;2022-09-12T11:46:44;2.00;;;1.85;;
5758;SDS011;2904;48.788;9.196;2022-09-12T11:49:22;2.10;;;1.70;;
5758;SDS011;2904;48.788;9.196;2022-09-12T11:52:24;1.87;;;1.77;;
5758;SDS011;2904;48.788;9.196;2022-09-12T11:57:55;1.87;;;1.55;;
5758;SDS011;2904;48.788;9.196;2022-09-12T12:00:23;1.20;;;1.10;;
5758;SDS011;2904;48.788;9.196;2022-09-12T12:06:47;1.00;;;1.00;;
5758;SDS011;2904;48.788;9.196;2022-09-12T12:09:14;2.35;;;1.00;;
5758;SDS011;2904;48.788;9.196;2022-09-12T12:11:42;1.62;;;0.98;;
5758;SDS011;2904;48.788;9.196;2022-09-12T12:14:13;0.90;;;0.90;;
5758;SDS011;2904;48.788;9.196;2022-09-12T12:18:34;1.40;;;1.30;;
5758;SDS011;2904;48.788;9.196;2022-09-12T12:24:02;1.23;;;1.20;;
5758;SDS011;2904;48.788;9.196;2022-09-12T12:26:39;1.50;;;1.30;;
5758;SDS011;2904;48.788;9.196;2022-09-12T12:29:16;2.92;;;2.00;;
5758;SDS011;2904;48.788;9.196;2022-09-12T12:34:48;1.90;;;1.70;;
5758;SDS011;2904;48.788;9.196;2022-09-12T12:40:24;2.35;;;1.30;;
5758;SDS011;2904;48.788;9.196;2022-09-12T12:42:57;11.82;;;1.40;;
5758;SDS011;2904;48.788;9.196;2022-09-12T12:48:14;1.55;;;1.10;;
5758;SDS011;2904;48.788;9.196;2022-09-12T12:50:41;1.55;;;1.20;;
5758;SDS011;2904;48.788;9.196;2022-09-12T12:53:15;2.10;;;1.17;;
5758;SDS011;2904;48.788;9.196;2022-09-12T12:55:52;1.17;;;1.10;;
5758;SDS011;2904;48.788;9.196;2022-09-12T13:01:18;2.42;;;1.48;;
5758;SDS011;2904;48.788;9.196;2022-09-12T13:03:52;2.65;;;1.87;;
5758;SDS011;2904;48.788;9.196;2022-09-12T13:06:34;2.58;;;1.25;;
5758;SDS011;2904;48.788;9.196;2022-09-12T13:09:02;1.83;;;1.73;;
5758;SDS011;2904;48.788;9.196;2022-09-12T13:11:35;1.40;;;1.30;;
5758;SDS011;2904;48.788;9.196;2022-09-12T13:18:06;1.83;;;1.52;;
5758;SDS011;2904;48.788;9.196;2022-09-12T13:20:42;1.55;;;1.42;;
5758;SDS011;2904;48.788;9.196;2022-09-12T13:23:25;2.12;;;1.67;;
5758;SDS011;2904;48.788;9.196;2022-09-12T13:25:56;1.50;;;1.40;;
5758;SDS011;2904;48.788;9.196;2022-09-12T13:28:24;1.10;;;1.10;;
5758;SDS011;2904;48.788;9.196;2022-09-12T13:31:00;3.50;;;1.27;;
5758;SDS011;2904;48.788;9.196;2022-09-12T13:33:33;2.05;;;1.27;;
5758;SDS011;2904;48.788;9.196;2022-09-12T13:36:25;1.65;;;1.00;;
5758;SDS011;2904;48.788;9.196;2022-09-12T13:45:38;1.65;;;1.05;;
5758;SDS011;2904;48.788;9.196;2022-09-12T13:48:05;1.20;;;1.10;;
5758;SDS011;2904;48.788;9.196;2022-09-12T13:50:35;1.12;;;1.12;;
5758;SDS011;2904;48.788;9.196;2022-09-12T13:53:06;1.20;;;1.10;;
5758;SDS011;2904;48.788;9.196;2022-09-12T13:55:39;2.17;;;1.10;;
5758;SDS011;2904;48.788;9.196;2022-09-12T13:58:26;2.33;;;1.20;;
5758;SDS011;2904;48.788;9.196;2022-09-12T14:05:11;1.15;;;1.12;;
5758;SDS011;2904;48.788;9.196;2022-09-12T14:07:48;2.00;;;1.20;;
5758;SDS011;2904;48.788;9.196;2022-09-12T14:10:27;4.45;;;1.30;;
5758;SDS011;2904;48.788;9.196;2022-09-12T14:13:01;1.20;;;1.10;;
5758;SDS011;2904;48.788;9.196;2022-09-12T14:15:35;1.20;;;1.00;;
5758;SDS011;2904;48.788;9.196;2022-09-12T14:18:03;1.00;;;1.00;;
5758;SDS011;2904;48.788;9.196;2022-09-12T14:20:30;1.30;;;1.20;;
5758;SDS011;2904;48.788;9.196;2022-09-12T14:23:05;2.97;;;1.17;;
5758;SDS011;2904;48.788;9.196;2022-09-12T14:25:42;2.08;;;1.20;;
5758;SDS011;2904;48.788;9.196;2022-09-12T14:28:12;1.58;;;1.02;;
5758;SDS011;2904;48.788;9.196;2022-09-12T14:30:39;1.30;;;1.10;;
5758;SDS011;2904;48.788;9.196;2022-09-12T14:35:51;3.45;;;1.27;;
5758;SDS011;2904;48.788;9.196;2022-09-12T14:38:34;4.28;;;1.20;;
5758;SDS011;2904;48.788;9.196;2022-09-12T14:41:08;1.83;;;1.10;;
5758;SDS011;2904;48.788;9.196;2022-09-12T14:43:36;1.10;;;1.00;;
5758;SDS011;2904;48.788;9.196;2022-09-12T14:46:07;1.12;;;1.02;;
5758;SDS011;2904;48.788;9.196;2022-09-12T14:48:51;0.98;;;0.93;;
5758;SDS011;2904;48.788;9.196;2022-09-12T14:51:22;1.17;;;1.05;;
5758;SDS011;2904;48.788;9.196;2022-09-12T14:53:51;1.23;;;0.90;;
5758;SDS011;2904;48.788;9.196;2022-09-12T14:56:19;2.87;;;0.90;;
5758;SDS011;2904;48.788;9.196;2022-09-12T14:58:45;1.75;;;0.90;;
5758;SDS011;2904;48.788;9.196;2022-09-12T15:01:21;1.73;;;1.10;;
5758;SDS011;2904;48.788;9.196;2022-09-12T15:03:50;1.10;;;1.00;;
5758;SDS011;2904;48.788;9.196;2022-09-12T15:06:28;1.30;;;1.20;;
5758;SDS011;2904;48.788;9.196;2022-09-12T15:09:11;1.20;;;1.00;;
5758;SDS011;2904;48.788;9.196;2022-09-12T15:11:37;5.30;;;1.20;;
5758;SDS011;2904;48.788;9.196;2022-09-12T15:14:10;2.37;;;1.20;;
5758;SDS011;2904;48.788;9.196;2022-09-12T15:16:37;1.50;;;1.40;;
5758;SDS011;2904;48.788;9.196;2022-09-12T15:19:03;1.25;;;1.15;;
5758;SDS011;2904;48.788;9.196;2022-09-12T15:21:29;1.15;;;1.10;;
5758;SDS011;2904;48.788;9.196;2022-09-12T15:23:55;1.10;;;1.10;;
5758;SDS011;2904;48.788;9.196;2022-09-12T15:26:21;1.30;;;1.20;;
5758;SDS011;2904;48.788;9.196;2022-09-12T15:28:51;1.55;;;1.42;;
5758;SDS011;2904;48.788;9.196;2022-09-12T15:31:21;2.40;;;2.20;;
5758;SDS011;2904;48.788;9.196;2022-09-12T15:33:49;1.70;;;1.60;;
5758;SDS011;2904;48.788;9.196;2022-09-12T15:36:15;1.15;;;1.15;;
5758;SDS011;2904;48.788;9.196;2022-09-12T15:38:43;1.40;;;1.25;;
5758;SDS011;2904;48.788;9.196;2022-09-12T15:41:51;1.30;;;1.20;;
5758;SDS011;2904;48.788;9.196;2022-09-12T15:44:18;1.45;;;1.35;;
5758;SDS011;2904;48.788;9.196;2022-09-12T15:46:44;2.55;;;1.20;;
5758;SDS011;2904;48.788;9.196;2022-09-12T15:49:10;1.30;;;1.25;;
5758;SDS011;2904;48.788;9.196;2022-09-12T15:51:36;2.45;;;1.27;;
5758;SDS011;2904;48.788;9.196;2022-09-12T15:54:02;1.20;;;1.20;;
5758;SDS011;2904;48.788;9.196;2022-09-12T15:56:28;1.30;;;1.25;;
5758;SDS011;2904;48.788;9.196;2022-09-12T15:58:54;1.40;;;1.30;;
5758;SDS011;2904;48.788;9.196;2022-09-12T16:01:20;1.58;;;1.40;;
5758;SDS011;2904;48.788;9.196;2022-09-12T16:03:46;4.22;;;1.70;;
5758;SDS011;2904;48.788;9.196;2022-09-12T16:06:13;2.03;;;1.30;;
5758;SDS011;2904;48.788;9.196;2022-09-12T16:08:39;1.40;;;1.30;;
5758;SDS011;2904;48.788;9.196;2022-09-12T16:11:07;2.22;;;1.40;;
5758;SDS011;2904;48.788;9.196;2022-09-12T16:13:37;1.37;;;1.27;;
5758;SDS011;2904;48.788;9.196;2022-09-12T16:16:03;2.97;;;1.67;;
5758;SDS011;2904;48.788;9.196;2022-09-12T16:18:29;1.83;;;1.58;;
5758;SDS011;2904;48.788;9.196;2022-09-12T16:20:56;1.23;;;1.20;;
5758;SDS011;2904;48.788;9.196;2022-09-12T16:23:22;3.08;;;1.50;;
5758;SDS011;2904;48.788;9.196;2022-09-12T16:25:58;3.03;;;1.50;;
5758;SDS011;2904;48.788;9.196;2022-09-12T16:28:26;3.25;;;3.00;;
5758;SDS011;2904;48.788;9.196;2022-09-12T16:30:56;1.52;;;1.37;;
5758;SDS011;2904;48.788;9.196;2022-09-12T16:33:22;2.60;;;2.05;;
5758;SDS011;2904;48.788;9.196;2022-09-12T16:35:48;2.45;;;2.25;;
5758;SDS011;2904;48.788;9.196;2022-09-12T16:38:16;3.47;;;2.70;;
5758;SDS011;2904;48.788;9.196;2022-09-12T16:40:42;1.80;;;1.70;;
5758;SDS011;2904;48.788;9.196;2022-09-12T16:43:07;1.87;;;1.73;;
5758;SDS011;2904;48.788;9.196;2022-09-12T16:45:33;2.15;;;2.00;;
5758;SDS011;2904;48.788;9.196;2022-09-12T16:47:59;4.03;;;2.87;;
5758;SDS011;2904;48.788;9.196;2022-09-12T16:50:25;1.80;;;1.67;;
5758;SDS011;2904;48.788;9.196;2022-09-12T16:52:53;1.73;;;1.62;;
5758;SDS011;2904;48.788;9.196;2022-09-12T16:55:19;2.85;;;1.50;;
5758;SDS011;2904;48.788;9.196;2022-09-12T16:57:46;2.45;;;1.40;;
5758;SDS011;2904;48.788;9.196;2022-09-12T17:00:13;2.42;;;1.30;;
5758;SDS011;2904;48.788;9.196;2022-09-12T17:02:39;1.70;;;1.60;;
5758;SDS011;2904;48.788;9.196;2022-09-12T17:05:05;1.55;;;1.30;;
5758;SDS011;2904;48.788;9.196;2022-09-12T17:07:31;2.58;;;1.48;;
5758;SDS011;2904;48.788;9.196;2022-09-12T17:09:58;1.70;;;1.60;;
5758;SDS011;2904;48.788;9.196;2022-09-12T17:12:24;2.10;;;1.90;;
5758;SDS011;2904;48.788;9.196;2022-09-12T17:14:49;7.82;;;7.00;;